createdAt,value
2023-02-16T00:01:55.158Z,42.00
2023-02-16T00:04:45.802Z,52.10
2023-02-16T00:07:34.915Z,54.23
2023-02-16T00:10:24.341Z,51.00
2023-02-16T00:13:41.017Z,45.33
2023-02-16T00:16:30.310Z,54.23
2023-02-16T00:19:22.681Z,52.10
2023-02-16T00:22:13.398Z,52.03
2023-02-16T00:25:02.501Z,57.90
2023-02-16T00:27:51.802Z,78.53
2023-02-16T00:30:41.347Z,58.47
2023-02-16T00:33:31.833Z,57.60
2023-02-16T00:36:21.386Z,74.03
2023-02-16T00:39:12.109Z,70.90
2023-02-16T00:42:04.573Z,76.13
2023-02-16T00:44:55.877Z,63.10
2023-02-16T00:47:47.353Z,79.60
2023-02-16T00:50:36.794Z,64.60
2023-02-16T00:53:26.103Z,65.50
2023-02-16T00:56:21.305Z,74.33
2023-02-16T00:59:16.523Z,75.73
2023-02-16T01:02:05.801Z,61.80
2023-02-16T01:04:55.335Z,77.37
2023-02-16T01:08:02.571Z,63.07
2023-02-16T01:11:06.869Z,59.07
2023-02-16T01:13:58.939Z,55.33
2023-02-16T01:16:48.250Z,53.23
2023-02-16T01:19:37.497Z,55.13
2023-02-16T01:22:27.098Z,64.63
2023-02-16T01:25:17.139Z,61.27
2023-02-16T01:28:20.017Z,55.57
2023-02-16T01:31:11.934Z,59.73
2023-02-16T01:34:01.482Z,56.17
2023-02-16T01:36:51.303Z,58.07
2023-02-16T01:39:40.711Z,53.00
2023-02-16T01:42:38.578Z,52.83
2023-02-16T01:45:35.251Z,54.43
2023-02-16T01:48:29.578Z,58.20
2023-02-16T01:51:23.672Z,56.87
2023-02-16T01:54:32.804Z,50.60
2023-02-16T01:57:30.205Z,54.00
2023-02-16T02:00:29.090Z,52.03
2023-02-16T02:03:38.488Z,44.90
2023-02-16T02:06:35.000Z,49.47
2023-02-16T02:09:31.966Z,45.43
2023-02-16T02:13:38.500Z,45.23
2023-02-16T02:16:29.426Z,50.43
2023-02-16T02:19:18.858Z,49.17
2023-02-16T02:22:52.192Z,48.93
2023-02-16T02:26:14.329Z,49.47
2023-02-16T02:29:17.776Z,47.47
2023-02-16T02:32:17.951Z,50.60
2023-02-16T02:35:28.810Z,48.07
2023-02-16T02:38:25.532Z,49.03
2023-02-16T02:41:20.396Z,46.27
2023-02-16T02:44:12.132Z,50.17
2023-02-16T02:47:01.673Z,52.87
2023-02-16T02:49:52.293Z,51.60
2023-02-16T02:52:41.789Z,52.07
2023-02-16T02:55:52.311Z,48.27
2023-02-16T02:59:08.083Z,58.87
2023-02-16T03:02:02.420Z,52.97
2023-02-16T03:04:54.421Z,51.40
2023-02-16T03:07:49.185Z,51.53
2023-02-16T03:10:57.245Z,48.53
2023-02-16T03:13:49.657Z,55.63
2023-02-16T03:16:42.774Z,57.53
2023-02-16T03:19:50.741Z,48.73
2023-02-16T03:22:58.120Z,49.23
2023-02-16T03:26:04.775Z,52.07
2023-02-16T03:29:11.989Z,53.90
2023-02-16T03:32:01.478Z,55.07
2023-02-16T03:34:52.568Z,51.70
2023-02-16T03:37:42.354Z,47.93
2023-02-16T03:40:35.428Z,51.97
2023-02-16T03:43:27.989Z,49.23
2023-02-16T03:46:17.549Z,49.90
2023-02-16T03:49:06.950Z,45.47
2023-02-16T03:51:57.862Z,48.50
2023-02-16T03:54:47.288Z,50.97
2023-02-16T03:57:36.868Z,52.67
2023-02-16T04:00:26.450Z,46.17
2023-02-16T04:03:16.444Z,54.13
2023-02-16T04:06:07.515Z,53.43
2023-02-16T04:08:58.543Z,48.73
2023-02-16T04:12:05.173Z,49.53
2023-02-16T04:14:54.586Z,48.03
2023-02-16T04:17:44.160Z,50.57
2023-02-16T04:20:34.818Z,50.83
2023-02-16T04:23:24.345Z,53.90
2023-02-16T04:26:15.180Z,53.97
2023-02-16T04:29:04.640Z,48.40
2023-02-16T04:31:54.123Z,50.63
2023-02-16T04:34:43.700Z,52.17
2023-02-16T04:37:33.058Z,53.87
2023-02-16T04:40:23.212Z,49.23
2023-02-16T04:43:14.121Z,55.60
2023-02-16T04:46:03.589Z,44.17
2023-02-16T04:48:53.277Z,47.67
2023-02-16T04:51:42.676Z,48.80
2023-02-16T04:54:32.323Z,51.93
2023-02-16T04:57:24.474Z,58.67
2023-02-16T05:00:16.427Z,49.13
2023-02-16T05:03:06.010Z,48.33
2023-02-16T05:05:55.646Z,52.40
2023-02-16T05:08:45.057Z,50.87
2023-02-16T05:11:52.043Z,48.17
2023-02-16T05:14:45.379Z,51.30
2023-02-16T05:17:36.309Z,55.27
2023-02-16T05:20:46.141Z,50.40
2023-02-16T05:23:35.613Z,54.13
2023-02-16T05:26:24.977Z,49.33
2023-02-16T05:29:14.566Z,50.83
2023-02-16T05:32:04.853Z,54.27
2023-02-16T05:34:55.848Z,49.50
2023-02-16T05:37:45.305Z,51.13
2023-02-16T05:40:34.896Z,53.17
2023-02-16T05:43:24.377Z,51.90
2023-02-16T05:46:13.761Z,51.97
2023-02-16T05:49:04.049Z,52.13
2023-02-16T05:51:54.947Z,50.90
2023-02-16T05:54:44.447Z,53.50
2023-02-16T05:57:36.037Z,50.50
2023-02-16T06:00:25.819Z,57.87
2023-02-16T06:03:15.196Z,53.43
2023-02-16T06:06:05.878Z,53.47
2023-02-16T06:08:57.012Z,49.77
2023-02-16T06:11:46.767Z,60.20
2023-02-16T06:14:36.370Z,69.33
2023-02-16T06:17:25.937Z,54.53
2023-02-16T06:20:15.626Z,44.97
2023-02-16T06:23:05.107Z,52.33
2023-02-16T06:25:56.110Z,52.27
2023-02-16T06:28:45.994Z,51.47
2023-02-16T06:31:36.842Z,62.67
2023-02-16T06:34:27.080Z,53.97
2023-02-16T06:37:16.601Z,46.80
2023-02-16T06:40:06.545Z,47.83
2023-02-16T06:42:57.366Z,59.87
2023-02-16T06:45:46.927Z,57.23
2023-02-16T06:48:36.470Z,50.63
2023-02-16T06:51:26.269Z,70.57
2023-02-16T06:54:16.439Z,58.27
2023-02-16T06:57:06.097Z,59.53
2023-02-16T06:59:57.626Z,62.70
2023-02-16T07:02:47.097Z,57.30
2023-02-16T07:05:36.480Z,59.20
2023-02-16T07:08:25.759Z,53.27
2023-02-16T07:11:15.480Z,51.67
2023-02-16T07:14:04.962Z,57.13
2023-02-16T07:16:57.870Z,53.20
2023-02-16T07:19:47.279Z,106.50
2023-02-16T07:22:36.831Z,56.73
2023-02-16T07:25:26.719Z,54.77
2023-02-16T07:28:16.273Z,50.27
2023-02-16T07:31:10.431Z,52.50
2023-02-16T07:34:01.266Z,56.03
2023-02-16T07:36:50.865Z,47.07
2023-02-16T07:39:40.160Z,49.37
2023-02-16T07:42:32.753Z,51.97
2023-02-16T07:45:22.188Z,45.63
2023-02-16T07:48:11.700Z,47.17
2023-02-16T07:51:02.925Z,60.83
2023-02-16T07:53:52.538Z,51.10
2023-02-16T07:56:41.971Z,49.90
2023-02-16T07:59:31.580Z,48.73
2023-02-16T08:02:22.064Z,50.97
2023-02-16T08:05:11.543Z,51.67
2023-02-16T08:08:02.446Z,55.30
2023-02-16T08:10:51.844Z,54.70
2023-02-16T08:13:41.702Z,53.33
2023-02-16T08:16:31.793Z,51.03
2023-02-16T08:19:21.134Z,54.77
2023-02-16T08:22:12.662Z,57.80
2023-02-16T08:25:05.288Z,48.50
2023-02-16T08:27:55.938Z,52.60
2023-02-16T08:30:45.403Z,53.80
2023-02-16T08:33:35.713Z,57.77
2023-02-16T08:36:26.784Z,49.60
2023-02-16T08:39:19.345Z,81.33
2023-02-16T08:42:13.516Z,52.47
2023-02-16T08:45:02.866Z,48.37
2023-02-16T08:47:53.583Z,46.07
2023-02-16T08:50:47.377Z,50.43
2023-02-16T08:53:37.501Z,45.30
2023-02-16T08:56:26.960Z,45.90
2023-02-16T08:59:19.374Z,52.10
2023-02-16T09:02:08.933Z,61.70
2023-02-16T09:04:58.492Z,54.43
2023-02-16T09:07:49.086Z,61.50
2023-02-16T09:10:38.663Z,48.90
2023-02-16T09:13:28.245Z,63.73
2023-02-16T09:16:21.463Z,48.07
2023-02-16T09:19:10.874Z,45.80
2023-02-16T09:22:00.425Z,51.73
2023-02-16T09:24:49.738Z,49.37
2023-02-16T09:27:39.498Z,53.20
2023-02-16T09:30:29.368Z,54.27
2023-02-16T09:33:20.496Z,50.30
2023-02-16T09:36:11.895Z,56.43
2023-02-16T09:39:02.879Z,50.80
2023-02-16T09:42:13.274Z,53.93
2023-02-16T09:45:10.028Z,54.90
2023-02-16T09:48:01.068Z,53.50
2023-02-16T09:50:55.728Z,60.50
2023-02-16T09:53:47.079Z,59.60
2023-02-16T09:56:42.363Z,60.03
2023-02-16T09:59:43.611Z,58.60
2023-02-16T10:02:51.395Z,57.87
2023-02-16T10:05:48.532Z,55.00
2023-02-16T10:08:43.037Z,56.37
2023-02-16T10:11:45.951Z,55.47
2023-02-16T10:14:42.168Z,57.93
2023-02-16T10:17:40.238Z,63.07
2023-02-16T10:20:33.917Z,64.43
2023-02-16T10:23:36.419Z,60.77
2023-02-16T10:26:32.345Z,61.37
2023-02-16T10:29:24.456Z,60.50
2023-02-16T10:32:22.830Z,61.57
2023-02-16T10:35:17.756Z,63.80
2023-02-16T10:38:11.948Z,53.53
2023-02-16T10:41:06.695Z,56.97
2023-02-16T10:44:03.045Z,61.70
2023-02-16T10:46:58.302Z,51.60
2023-02-16T10:49:48.936Z,58.43
2023-02-16T10:52:42.435Z,62.63
2023-02-16T10:55:32.016Z,60.53
2023-02-16T10:58:24.171Z,63.60
2023-02-16T11:01:20.499Z,62.20
2023-02-16T11:04:10.775Z,58.00
2023-02-16T11:07:05.287Z,51.97
2023-02-16T11:10:01.690Z,56.30
2023-02-16T11:12:58.877Z,58.13
2023-02-16T11:15:55.428Z,58.03
2023-02-16T11:18:51.200Z,56.53
2023-02-16T11:21:49.757Z,52.93
2023-02-16T11:24:40.531Z,53.73
2023-02-16T11:27:30.291Z,56.50
2023-02-16T11:30:23.986Z,61.27
2023-02-16T11:33:25.519Z,56.40
2023-02-16T11:36:26.034Z,57.83
2023-02-16T11:39:22.095Z,63.63
2023-02-16T11:42:22.297Z,58.73
2023-02-16T11:45:26.099Z,60.10
2023-02-16T11:48:16.533Z,63.17
2023-02-16T11:51:08.482Z,68.13
2023-02-16T11:54:05.973Z,60.10
2023-02-16T11:57:06.962Z,68.70
2023-02-16T11:59:57.393Z,60.90
2023-02-16T12:03:12.590Z,74.43
2023-02-16T12:06:18.271Z,69.27
2023-02-16T12:09:20.466Z,61.73
2023-02-16T12:12:18.038Z,61.33
2023-02-16T12:15:19.688Z,57.33
2023-02-16T12:18:23.375Z,61.87
2023-02-16T12:21:18.420Z,62.40
2023-02-16T12:24:22.753Z,63.13
2023-02-16T12:27:20.531Z,68.10
2023-02-16T12:30:24.023Z,69.33
2023-02-16T12:33:38.977Z,65.20
2023-02-16T12:36:45.263Z,73.13
2023-02-16T12:39:42.002Z,76.73
2023-02-16T12:42:50.373Z,74.87
2023-02-16T12:45:43.847Z,64.60
2023-02-16T12:48:42.179Z,71.17
2023-02-16T12:51:37.241Z,71.33
2023-02-16T12:54:30.060Z,79.00
2023-02-16T12:57:24.743Z,72.10
2023-02-16T13:00:20.574Z,70.93
2023-02-16T13:03:25.873Z,74.07
2023-02-16T13:06:23.258Z,69.67
2023-02-16T13:09:25.403Z,75.60
2023-02-16T13:12:26.156Z,72.87
2023-02-16T13:15:18.612Z,74.80
2023-02-16T13:18:15.230Z,71.13
2023-02-16T13:21:11.279Z,70.13
2023-02-16T13:24:10.490Z,73.53
2023-02-16T13:27:12.546Z,70.67
2023-02-16T13:30:26.419Z,78.60
2023-02-16T13:33:30.176Z,81.40
2023-02-16T13:36:37.418Z,85.67
2023-02-16T13:39:48.878Z,90.60
2023-02-16T13:43:04.773Z,78.53
2023-02-16T13:45:56.049Z,82.40
2023-02-16T13:48:50.187Z,78.40
2023-02-16T13:51:44.755Z,81.57
2023-02-16T13:54:37.378Z,79.87
2023-02-16T13:58:00.539Z,74.57
2023-02-16T14:00:51.239Z,68.30
2023-02-16T14:03:42.464Z,78.97
2023-02-16T14:06:38.189Z,70.73
2023-02-16T14:09:50.481Z,71.53
2023-02-16T14:12:41.569Z,70.07
2023-02-16T14:15:31.896Z,62.03
2023-02-16T14:18:33.128Z,68.03
2023-02-16T14:21:37.659Z,65.20
2023-02-16T14:24:33.723Z,57.93
2023-02-16T14:27:42.564Z,55.90
2023-02-16T14:30:37.553Z,52.37
2023-02-16T14:33:40.512Z,53.97
2023-02-16T14:36:32.590Z,55.70
2023-02-16T14:39:23.472Z,58.17
2023-02-16T14:42:18.648Z,61.13
2023-02-16T14:45:39.068Z,59.23
2023-02-16T14:49:02.343Z,61.60
2023-02-16T14:52:25.014Z,61.47
2023-02-16T14:55:56.047Z,54.30
2023-02-16T14:58:55.971Z,64.90
2023-02-16T15:01:48.250Z,56.87
2023-02-16T15:04:40.134Z,65.50
2023-02-16T15:07:32.192Z,66.07
2023-02-16T15:10:27.174Z,62.20
2023-02-16T15:13:22.175Z,68.80
2023-02-16T15:16:16.254Z,73.20
2023-02-16T15:19:12.705Z,65.30
2023-02-16T15:22:22.548Z,67.90
2023-02-16T15:25:25.332Z,65.83
2023-02-16T15:28:22.500Z,63.20
2023-02-16T15:31:18.984Z,68.50
2023-02-16T15:34:10.216Z,66.30
2023-02-16T15:36:59.818Z,64.00
2023-02-16T15:40:12.126Z,66.17
2023-02-16T15:43:12.057Z,62.97
2023-02-16T15:46:03.497Z,64.63
2023-02-16T15:48:54.193Z,64.50
2023-02-16T15:51:58.757Z,65.00
2023-02-16T15:54:50.607Z,65.93
2023-02-16T15:57:42.299Z,65.87
2023-02-16T16:00:33.742Z,65.80
2023-02-16T16:03:24.141Z,65.43
2023-02-16T16:06:15.214Z,67.23
2023-02-16T16:09:09.595Z,68.37
2023-02-16T16:12:07.167Z,67.80
2023-02-16T16:14:59.762Z,69.50
2023-02-16T16:17:53.342Z,70.53
2023-02-16T16:20:45.256Z,61.57
2023-02-16T16:23:35.789Z,67.97
2023-02-16T16:26:28.792Z,66.17
2023-02-16T16:29:34.495Z,65.77
2023-02-16T16:32:27.766Z,63.07
2023-02-16T16:35:36.611Z,68.27
2023-02-16T16:38:29.267Z,62.37
2023-02-16T16:41:29.204Z,60.47
2023-02-16T16:44:34.596Z,65.00
2023-02-16T16:47:28.595Z,66.57
2023-02-16T16:50:35.989Z,61.80
2023-02-16T16:53:46.636Z,63.07
2023-02-16T16:56:40.647Z,70.43
2023-02-16T16:59:31.283Z,71.07
2023-02-16T17:02:23.271Z,68.10
2023-02-16T17:05:14.280Z,65.70
2023-02-16T17:08:08.730Z,70.30
2023-02-16T17:10:59.014Z,68.90
2023-02-16T17:13:50.790Z,62.70
2023-02-16T17:16:45.686Z,66.23
2023-02-16T17:19:36.384Z,62.97
2023-02-16T17:22:26.925Z,65.80
2023-02-16T17:25:20.011Z,66.57
2023-02-16T17:28:11.272Z,74.40
2023-02-16T17:31:01.662Z,64.53
2023-02-16T17:33:53.588Z,67.50
2023-02-16T17:36:45.029Z,68.57
2023-02-16T17:39:36.461Z,70.70
2023-02-16T17:42:28.936Z,67.53
2023-02-16T17:45:23.088Z,68.47
2023-02-16T17:52:02.724Z,59.97
2023-02-16T17:54:55.261Z,60.17
2023-02-16T17:57:47.230Z,71.80
2023-02-16T18:00:38.452Z,60.73
2023-02-16T18:03:29.542Z,61.23
2023-02-16T18:06:23.348Z,65.07
2023-02-16T18:09:28.472Z,63.13
2023-02-16T18:12:19.672Z,62.73
2023-02-16T18:15:28.793Z,61.77
2023-02-16T18:18:29.507Z,58.00
2023-02-16T18:21:28.448Z,65.93
2023-02-16T18:24:20.067Z,69.67
2023-02-16T18:27:17.727Z,62.60
2023-02-16T18:30:20.604Z,65.77
2023-02-16T18:33:13.745Z,64.77
2023-02-16T18:36:17.190Z,70.33
2023-02-16T18:39:18.574Z,64.87
2023-02-16T18:42:15.705Z,67.27
2023-02-16T18:45:08.262Z,69.63
2023-02-16T18:48:05.712Z,60.67
2023-02-16T18:50:58.846Z,65.27
2023-02-16T18:54:06.183Z,60.07
2023-02-16T18:57:03.783Z,64.03
2023-02-16T18:59:56.193Z,66.60
2023-02-16T19:02:54.199Z,69.93
2023-02-16T19:05:46.108Z,65.50
2023-02-16T19:08:49.275Z,69.63
2023-02-16T19:11:47.714Z,62.70
2023-02-16T19:14:46.884Z,67.07
2023-02-16T19:17:45.818Z,65.53
2023-02-16T19:20:36.773Z,66.70
2023-02-16T19:23:34.821Z,72.73
2023-02-16T19:26:30.502Z,62.43
2023-02-16T19:29:34.910Z,69.00
2023-02-16T19:32:33.593Z,65.33
2023-02-16T19:35:31.656Z,59.47
2023-02-16T19:38:29.914Z,57.73
2023-02-16T19:41:29.830Z,61.60
2023-02-16T19:44:22.911Z,68.90
2023-02-16T19:47:22.901Z,57.67
2023-02-16T19:50:21.462Z,57.73
2023-02-16T19:53:19.831Z,59.23
2023-02-16T19:56:19.859Z,58.63
2023-02-16T19:59:21.868Z,59.03
2023-02-16T20:02:16.522Z,60.27
2023-02-16T20:05:16.775Z,58.90
2023-02-16T20:08:08.056Z,57.37
2023-02-16T20:11:22.925Z,56.27
2023-02-16T20:14:39.990Z,72.73
2023-02-16T20:17:39.132Z,56.30
2023-02-16T20:20:37.786Z,55.73
2023-02-16T20:23:38.821Z,53.87
2023-02-16T20:26:39.829Z,54.57
2023-02-16T20:29:44.323Z,54.03
2023-02-16T20:32:38.957Z,54.13
2023-02-16T20:35:37.865Z,59.30
2023-02-16T20:38:28.178Z,54.57
2023-02-16T20:41:27.799Z,55.57
2023-02-16T20:44:19.680Z,61.23
2023-02-16T20:47:17.861Z,61.47
2023-02-16T20:50:09.321Z,62.23
2023-02-16T20:53:08.336Z,63.37
2023-02-16T20:56:04.695Z,61.30
2023-02-16T20:59:03.795Z,66.37
2023-02-16T21:01:58.460Z,70.53
2023-02-16T21:04:55.720Z,75.37
2023-02-16T21:07:49.098Z,69.00
2023-02-16T21:10:50.310Z,72.10
2023-02-16T21:13:47.424Z,74.70
2023-02-16T21:16:46.137Z,62.20
2023-02-16T21:19:56.584Z,66.83
2023-02-16T21:22:49.213Z,59.07
2023-02-16T21:25:48.897Z,63.97
2023-02-16T21:28:46.738Z,62.93
2023-02-16T21:31:45.491Z,68.20
2023-02-16T21:34:35.015Z,77.73
2023-02-16T21:37:33.500Z,78.57
2023-02-16T21:40:49.786Z,90.90
2023-02-16T21:43:47.664Z,83.53
2023-02-16T21:46:46.267Z,95.60
2023-02-16T21:49:34.860Z,82.77
2023-02-16T21:52:31.294Z,75.67
2023-02-16T21:55:44.335Z,96.43
2023-02-16T21:58:36.283Z,86.27
2023-02-16T22:01:36.260Z,88.67
2023-02-16T22:04:25.735Z,94.50
2023-02-16T22:07:21.313Z,84.47
2023-02-16T22:10:11.531Z,100.83
2023-02-16T22:13:08.319Z,110.67
2023-02-16T22:16:10.310Z,98.50
2023-02-16T22:19:08.341Z,96.17
2023-02-16T22:21:58.048Z,105.23
2023-02-16T22:24:54.375Z,91.47
2023-02-16T22:27:50.251Z,116.23
2023-02-16T22:30:39.595Z,87.80
2023-02-16T22:33:35.317Z,103.77
2023-02-16T22:36:33.304Z,107.90
2023-02-16T22:39:31.400Z,113.67
2023-02-16T22:42:20.897Z,103.53
2023-02-16T22:45:17.297Z,107.90
2023-02-16T22:48:06.897Z,109.53
2023-02-16T22:51:06.280Z,107.13
2023-02-16T22:54:47.815Z,105.70
2023-02-16T23:01:49.443Z,117.07
2023-02-16T23:04:45.336Z,118.40
2023-02-16T23:07:42.293Z,128.10
2023-02-16T23:10:39.332Z,104.20
2023-02-16T23:13:30.035Z,99.63
2023-02-16T23:16:25.118Z,119.33
2023-02-16T23:19:21.813Z,123.13
2023-02-16T23:22:11.413Z,137.07
2023-02-16T23:25:21.625Z,129.50
2023-02-16T23:28:13.229Z,113.00
2023-02-16T23:31:03.029Z,96.23
2023-02-16T23:33:53.672Z,136.87
2023-02-16T23:36:44.885Z,100.83
2023-02-16T23:39:34.216Z,137.93
2023-02-16T23:42:26.102Z,125.00
2023-02-16T23:45:15.342Z,128.47
2023-02-16T23:48:05.822Z,149.60
2023-02-16T23:50:55.682Z,117.97
2023-02-16T23:53:47.144Z,136.97
2023-02-16T23:56:36.508Z,129.90
2023-02-16T23:59:28.323Z,142.63
